| time (UTC) | temp F | wind direction | speed knots | gust knots | rain 1hr in | rain 24hr in | rain mn in | humidity % | barometer mb |
| 20260502204042 | 67 | 302 | 3.5 | 10.4 | 0.00 | 0.00 | 0.00 | 34 | 1013.5 |
| 20260502203550 | 66 | 71 | 4.3 | 10.4 | 0.00 | 0.00 | 0.00 | 32 | 1013.5 |
| 20260502203058 | 66 | 308 | 4.3 | 12.2 | 0.00 | 0.00 | 0.00 | 33 | 1013.7 |
| 20260502202538 | 66 | 91 | 2.6 | 11.3 | 0.00 | 0.00 | 0.00 | 36 | 1013.8 |
| 20260502202044 | 65 | 104 | 3.5 | 9.6 | 0.00 | 0.00 | 0.00 | 34 | 1013.9 |
| 20260502201542 | 65 | 360 | 5.2 | 15.6 | 0.00 | 0.00 | 0.00 | 32 | 1013.9 |
| 20260502201045 | 66 | 313 | 8.7 | 15.6 | 0.00 | 0.00 | 0.00 | 33 | 1014.1 |
| 20260502200550 | 66 | 325 | 5.2 | 8.7 | 0.00 | 0.00 | 0.00 | 33 | 1014.2 |
| 20260502200056 | 66 | 202 | 3.5 | 9.6 | 0.00 | 0.00 | 0.00 | 36 | 1014.3 |
| 20260502195537 | 65 | 355 | 3.5 | 8.7 | 0.00 | 0.00 | 0.00 | 35 | 1014.4 |
| 20260502195041 | 65 | 279 | 4.3 | 11.3 | 0.00 | 0.00 | 0.00 | 35 | 1014.6 |
| 20260502194522 | 65 | 277 | 2.6 | 12.2 | 0.00 | 0.00 | 0.00 | 36 | 1014.7 |
| 20260502194022 | 64 | 342 | 5.2 | 12.2 | 0.00 | 0.00 | 0.00 | 37 | 1014.8 |
| 20260502193524 | 64 | 194 | 2.6 | 9.6 | 0.00 | 0.00 | 0.00 | 39 | 1014.8 |
| 20260502193025 | 63 | 236 | 4.3 | 9.6 | 0.00 | 0.00 | 0.00 | 35 | 1014.9 |
| 20260502192527 | 63 | 313 | 3.5 | 9.6 | 0.00 | 0.00 | 0.00 | 34 | 1015.0 |
| 20260502192028 | 63 | 302 | 3.5 | 13.0 | 0.00 | 0.00 | 0.00 | 35 | 1015.1 |
| 20260502191527 | 63 | 300 | 5.2 | 13.0 | 0.00 | 0.00 | 0.00 | 34 | 1015.2 |
| 20260502191027 | 64 | 285 | 4.3 | 7.8 | 0.00 | 0.00 | 0.00 | 33 | 1015.4 |
| 20260502190527 | 62 | 163 | 4.3 | 7.8 | 0.00 | 0.00 | 0.00 | 36 | 1015.4 |
| 20260502190026 | 62 | 323 | 2.6 | 7.8 | 0.00 | 0.00 | 0.00 | 36 | 1015.6 |
| 20260502185523 | 62 | 150 | 2.6 | 9.6 | 0.00 | 0.00 | 0.00 | 35 | 1015.6 |
| 20260502185023 | 61 | 310 | 5.2 | 9.6 | 0.00 | 0.00 | 0.00 | 34 | 1015.8 |
| 20260502184523 | 62 | 217 | 2.6 | 10.4 | 0.00 | 0.00 | 0.00 | 34 | 1015.9 |
| 20260502184025 | 61 | 286 | 3.5 | 10.4 | 0.00 | 0.00 | 0.00 | 34 | 1016.0 |
| 20260502183525 | 62 | 291 | 3.5 | 9.6 | 0.00 | 0.00 | 0.00 | 36 | 1016.1 |
| 20260502182526 | 61 | 250 | 4.3 | 11.3 | 0.00 | 0.00 | 0.00 | 35 | 1016.4 |
| 20260502182029 | 62 | 339 | 2.6 | 7.8 | 0.00 | 0.00 | 0.00 | 36 | 1016.4 |
| 20260502181529 | 61 | 162 | 4.3 | 8.7 | 0.00 | 0.00 | 0.00 | 35 | 1016.5 |
| 20260502181032 | 61 | 172 | 5.2 | 10.4 | 0.00 | 0.00 | 0.00 | 35 | 1016.6 |
| 20260502180515 | 61 | 23 | 3.5 | 9.6 | 0.00 | 0.00 | 0.00 | 36 | 1016.7 |
| 20260502164023 | 57 | 249 | 1.7 | 7.0 | 0.00 | 0.00 | 0.00 | 38 | 1017.9 |
| 20260502163525 | 57 | 244 | 2.6 | 7.8 | 0.00 | 0.00 | 0.00 | 41 | 1018.0 |
| 20260502163026 | 57 | 321 | 4.3 | 7.8 | 0.00 | 0.00 | 0.00 | 38 | 1018.1 |
| 20260502162528 | 57 | 300 | 2.6 | 7.8 | 0.00 | 0.00 | 0.00 | 42 | 1018.2 |
| 20260502162028 | 56 | 131 | 3.5 | 10.4 | 0.00 | 0.00 | 0.00 | 40 | 1018.3 |
| 20260502161528 | 57 | 287 | 5.2 | 9.6 | 0.00 | 0.00 | 0.00 | 40 | 1018.3 |
| 20260502161028 | 56 | 312 | 3.5 | 9.6 | 0.00 | 0.00 | 0.00 | 39 | 1018.4 |
| 20260502160528 | 57 | 348 | 2.6 | 7.0 | 0.00 | 0.00 | 0.00 | 38 | 1018.5 |
| 20260502152018 | 54 | 285 | 4.3 | 10.4 | 0.00 | 0.00 | 0.00 | 44 | 1018.9 |
| 20260502151519 | 54 | 323 | 4.3 | 10.4 | 0.00 | 0.00 | 0.00 | 43 | 1019.0 |
| 20260502151019 | 54 | 271 | 4.3 | 9.6 | 0.00 | 0.00 | 0.00 | 44 | 1019.0 |
| 20260502150520 | 53 | 344 | 4.3 | 9.6 | 0.00 | 0.00 | 0.00 | 43 | 1019.1 |
| 20260502130532 | 46 | 313 | 3.5 | 7.8 | 0.00 | 0.00 | 0.00 | 59 | 1019.5 |
| 20260502123548 | 41 | 229 | 0.0 | 1.7 | 0.00 | 0.00 | 0.00 | 68 | 1019.6 |
| 20260502123042 | 40 | 229 | 0.0 | 1.7 | 0.00 | 0.00 | 0.00 | 69 | 1019.6 |
| 20260502122548 | 40 | 255 | 0.0 | 0.9 | 0.00 | 0.00 | 0.00 | 71 | 1019.5 |
| 20260502122054 | 39 | 256 | 0.0 | 0.9 | 0.00 | 0.00 | 0.00 | 72 | 1019.4 |
| 20260502121534 | 38 | 256 | 0.0 | 0.9 | 0.00 | 0.00 | 0.00 | 73 | 1019.4 |
| 20260502121059 | 37 | 256 | 0.0 | 0.9 | 0.00 | 0.00 | 0.00 | 74 | 1019.4 |
| 20260502120539 | 37 | 256 | 0.0 | 0.9 | 0.00 | 0.00 | 0.00 | 76 | 1019.4 |
| 20260502115549 | 35 | 262 | 0.0 | 0.9 | 0.00 | 0.00 | 0.00 | 76 | 1019.4 |
| 20260502115054 | 35 | 262 | 0.0 | 0.9 | 0.00 | 0.00 | 0.00 | 76 | 1019.4 |
| 20260502114600 | 35 | 214 | 0.0 | 0.9 | 0.00 | 0.00 | 0.00 | 76 | 1019.3 |
| 20260502114038 | 34 | 214 | 0.0 | 0.9 | 0.00 | 0.00 | 0.00 | 76 | 1019.3 |
| 20260502113545 | 34 | 214 | 0.0 | 0.9 | 0.00 | 0.00 | 0.00 | 75 | 1019.3 |
| 20260502113050 | 34 | 214 | 0.0 | 0.9 | 0.00 | 0.00 | 0.00 | 74 | 1019.3 |
| 20260502112555 | 34 | 214 | 0.0 | 0.9 | 0.00 | 0.00 | 0.00 | 74 | 1019.2 |
| 20260502112034 | 34 | 214 | 0.0 | 0.0 | 0.00 | 0.00 | 0.00 | 74 | 1019.2 |
| 20260502111541 | 34 | 214 | 0.0 | 0.0 | 0.00 | 0.00 | 0.00 | 73 | 1019.2 |
| 20260502111036 | 34 | 214 | 0.0 | 0.0 | 0.00 | 0.00 | 0.00 | 73 | 1019.1 |
| 20260502110542 | 34 | 214 | 0.0 | 0.0 | 0.00 | 0.00 | 0.00 | 73 | 1019.2 |
| 20260502110048 | 35 | 214 | 0.0 | 0.0 | 0.00 | 0.00 | 0.00 | 72 | 1019.2 |
| 20260502105556 | 35 | 214 | 0.0 | 0.0 | 0.00 | 0.00 | 0.00 | 72 | 1019.2 |
| 20260502105037 | 35 | 214 | 0.0 | 0.0 | 0.00 | 0.00 | 0.00 | 72 | 1019.3 |
| 20260502104518 | 35 | 214 | 0.0 | 0.0 | 0.00 | 0.00 | 0.00 | 72 | 1019.2 |
| 20260502104020 | 35 | 214 | 0.0 | 0.0 | 0.00 | 0.00 | 0.00 | 71 | 1019.2 |
| 20260502103521 | 35 | 214 | 0.0 | 0.0 | 0.00 | 0.00 | 0.00 | 71 | 1019.2 |
| 20260502103024 | 35 | 214 | 0.0 | 0.0 | 0.00 | 0.00 | 0.00 | 71 | 1019.2 |
| 20260502102525 | 35 | 214 | 0.0 | 0.0 | 0.00 | 0.00 | 0.00 | 71 | 1019.2 |
| 20260502102026 | 35 | 214 | 0.0 | 0.0 | 0.00 | 0.00 | 0.00 | 70 | 1019.2 |
| 20260502101528 | 36 | 214 | 0.0 | 0.0 | 0.00 | 0.00 | 0.00 | 69 | 1019.2 |
| 20260502101024 | 36 | 214 | 0.0 | 0.0 | 0.00 | 0.00 | 0.00 | 69 | 1019.1 |
| 20260502100524 | 36 | 214 | 0.0 | 0.0 | 0.00 | 0.00 | 0.00 | 67 | 1019.1 |
| 20260502091518 | 38 | 214 | 0.0 | 0.0 | 0.00 | 0.00 | 0.00 | 63 | 1019.1 |
| 20260502091024 | 38 | 214 | 0.0 | 0.0 | 0.00 | 0.00 | 0.00 | 62 | 1019.1 |
| 20260502090524 | 39 | 214 | 0.0 | 0.0 | 0.00 | 0.00 | 0.00 | 62 | 1019.0 |
| 20260502071530 | 40 | 283 | 0.0 | 1.7 | 0.00 | 0.00 | 0.00 | 59 | 1019.2 |
| 20260502071029 | 40 | 283 | 0.0 | 1.7 | 0.00 | 0.00 | 0.00 | 59 | 1019.3 |
| 20260502070530 | 40 | 278 | 0.0 | 1.7 | 0.00 | 0.00 | 0.00 | 60 | 1019.4 |
| 20260502070032 | 40 | 280 | 0.0 | 1.7 | 0.00 | 0.00 | 0.00 | 59 | 1019.4 |
| 20260502065534 | 40 | 269 | 0.0 | 1.7 | 0.00 | 0.00 | 0.00 | 59 | 1019.5 |
| 20260502065036 | 40 | 277 | 0.0 | 1.7 | 0.00 | 0.00 | 0.00 | 59 | 1019.5 |
| 20260502064537 | 40 | 277 | 0.0 | 1.7 | 0.00 | 0.00 | 0.00 | 59 | 1019.5 |
| 20260502064058 | 39 | 277 | 0.0 | 1.7 | 0.00 | 0.00 | 0.00 | 59 | 1019.5 |
| 20260502063537 | 39 | 277 | 0.0 | 1.7 | 0.00 | 0.00 | 0.00 | 59 | 1019.5 |
| 20260502063043 | 40 | 277 | 0.0 | 1.7 | 0.00 | 0.00 | 0.00 | 59 | 1019.5 |
| 20260502062550 | 40 | 277 | 0.0 | 1.7 | 0.00 | 0.00 | 0.00 | 58 | 1019.5 |
| 20260502062053 | 40 | 283 | 0.0 | 1.7 | 0.00 | 0.00 | 0.00 | 58 | 1019.5 |
| 20260502061556 | 40 | 283 | 0.0 | 0.9 | 0.00 | 0.00 | 0.00 | 58 | 1019.5 |
| 20260502061038 | 40 | 283 | 0.0 | 0.0 | 0.00 | 0.00 | 0.00 | 58 | 1019.4 |
| 20260502060600 | 40 | 283 | 0.0 | 0.9 | 0.00 | 0.00 | 0.00 | 58 | 1019.5 |
| 20260502060058 | 40 | 283 | 0.0 | 0.9 | 0.00 | 0.00 | 0.00 | 59 | 1019.5 |
| 20260502055538 | 39 | 282 | 0.0 | 1.7 | 0.00 | 0.00 | 0.00 | 59 | 1019.5 |
| 20260502055038 | 39 | 282 | 0.0 | 1.7 | 0.00 | 0.00 | 0.00 | 59 | 1019.5 |
| 20260502054547 | 39 | 282 | 0.0 | 2.6 | 0.00 | 0.00 | 0.00 | 60 | 1019.5 |
| 20260502054028 | 39 | 282 | 0.0 | 1.7 | 0.00 | 0.00 | 0.00 | 60 | 1019.5 |
| 20260502053512 | 39 | 284 | 0.0 | 1.7 | 0.00 | 0.00 | 0.00 | 61 | 1019.6 |
| 20260502053016 | 38 | 288 | 0.9 | 1.7 | 0.00 | 0.00 | 0.00 | 61 | 1019.5 |
| 20260502052517 | 38 | 311 | 0.0 | 1.7 | 0.00 | 0.00 | 0.00 | 61 | 1019.6 |
| 20260502052017 | 38 | 311 | 0.0 | 0.0 | 0.00 | 0.00 | 0.00 | 62 | 1019.6 |
| 20260502051519 | 38 | 311 | 0.0 | 0.0 | 0.00 | 0.00 | 0.00 | 62 | 1019.5 |
| 20260502051020 | 38 | 311 | 0.0 | 0.0 | 0.00 | 0.00 | 0.00 | 63 | 1019.6 |
| 20260502050522 | 38 | 311 | 0.0 | 0.0 | 0.00 | 0.00 | 0.00 | 65 | 1019.5 |
| 20260502050043 | 39 | 311 | 0.0 | 0.0 | 0.00 | 0.00 | 0.00 | 65 | 1019.5 |
| 20260502045513 | 39 | 311 | 0.0 | 0.0 | 0.00 | 0.00 | 0.00 | 63 | 1019.5 |
| 20260502045014 | 39 | 311 | 0.0 | 0.0 | 0.00 | 0.00 | 0.00 | 61 | 1019.4 |
| 20260502044517 | 39 | 311 | 0.0 | 0.0 | 0.00 | 0.00 | 0.00 | 61 | 1019.4 |
| 20260502044019 | 39 | 311 | 0.0 | 0.0 | 0.00 | 0.00 | 0.00 | 61 | 1019.4 |
| 20260502043521 | 39 | 311 | 0.0 | 0.9 | 0.00 | 0.00 | 0.00 | 61 | 1019.4 |
| 20260502043026 | 39 | 311 | 0.0 | 0.9 | 0.00 | 0.00 | 0.00 | 62 | 1019.5 |
| 20260502042526 | 39 | 311 | 0.0 | 0.0 | 0.00 | 0.00 | 0.00 | 64 | 1019.4 |
| 20260502042026 | 39 | 311 | 0.0 | 0.9 | 0.00 | 0.00 | 0.00 | 63 | 1019.4 |
| 20260502041528 | 39 | 311 | 0.0 | 0.9 | 0.00 | 0.00 | 0.00 | 65 | 1019.4 |
| 20260502041028 | 39 | 311 | 0.0 | 0.9 | 0.00 | 0.00 | 0.00 | 64 | 1019.5 |
| 20260502040528 | 39 | 311 | 0.0 | 0.9 | 0.00 | 0.00 | 0.00 | 66 | 1019.4 |
| 20260502040028 | 40 | 311 | 0.0 | 0.9 | 0.00 | 0.00 | 0.00 | 66 | 1019.5 |
| 20260502035529 | 40 | 311 | 0.0 | 0.9 | 0.00 | 0.00 | 0.00 | 65 | 1019.5 |
| 20260502035031 | 40 | 311 | 0.0 | 0.0 | 0.00 | 0.00 | 0.00 | 64 | 1019.5 |
| 20260502034513 | 40 | 311 | 0.0 | 0.0 | 0.00 | 0.00 | 0.00 | 63 | 1019.5 |
| 20260502034015 | 40 | 311 | 0.0 | 0.0 | 0.00 | 0.00 | 0.00 | 65 | 1019.5 |
| 20260502033518 | 41 | 311 | 0.0 | 0.0 | 0.00 | 0.00 | 0.00 | 63 | 1019.6 |
| 20260502033020 | 41 | 311 | 0.0 | 0.0 | 0.00 | 0.00 | 0.00 | 62 | 1019.6 |
| 20260502032522 | 41 | 311 | 0.0 | 0.0 | 0.00 | 0.00 | 0.00 | 59 | 1019.6 |
| 20260502032025 | 41 | 311 | 0.0 | 0.0 | 0.00 | 0.00 | 0.00 | 57 | 1019.6 |
| 20260502031527 | 42 | 311 | 0.0 | 0.0 | 0.00 | 0.00 | 0.00 | 58 | 1019.6 |
| 20260502031027 | 42 | 311 | 0.0 | 0.0 | 0.00 | 0.00 | 0.00 | 59 | 1019.6 |
| 20260502030527 | 43 | 311 | 0.0 | 0.0 | 0.00 | 0.00 | 0.00 | 59 | 1019.6 |
| 20260502030028 | 43 | 311 | 0.0 | 0.0 | 0.00 | 0.00 | 0.00 | 55 | 1019.6 |
| 20260502025528 | 43 | 311 | 0.0 | 0.0 | 0.00 | 0.00 | 0.00 | 56 | 1019.5 |
| 20260502025031 | 44 | 311 | 0.0 | 0.0 | 0.00 | 0.00 | 0.00 | 55 | 1019.5 |
| 20260502024557 | 44 | 311 | 0.0 | 0.0 | 0.00 | 0.00 | 0.00 | 54 | 1019.5 |
| 20260502024058 | 44 | 311 | 0.0 | 0.0 | 0.00 | 0.00 | 0.00 | 53 | 1019.5 |
| 20260502023538 | 44 | 311 | 0.0 | 0.0 | 0.00 | 0.00 | 0.00 | 48 | 1019.6 |
| 20260502023046 | 45 | 311 | 0.0 | 0.0 | 0.00 | 0.00 | 0.00 | 48 | 1019.5 |
| 20260502022556 | 45 | 311 | 0.0 | 0.0 | 0.00 | 0.00 | 0.00 | 47 | 1019.5 |
| 20260502022053 | 46 | 311 | 0.0 | 0.0 | 0.00 | 0.00 | 0.00 | 46 | 1019.5 |
| 20260502021559 | 46 | 311 | 0.0 | 0.0 | 0.00 | 0.00 | 0.00 | 44 | 1019.5 |
| 20260502021037 | 47 | 311 | 0.0 | 0.0 | 0.00 | 0.00 | 0.00 | 44 | 1019.4 |
| 20260502020545 | 47 | 311 | 0.0 | 0.0 | 0.00 | 0.00 | 0.00 | 44 | 1019.3 |
| 20260502020051 | 48 | 311 | 0.0 | 0.0 | 0.00 | 0.00 | 0.00 | 43 | 1019.3 |
| 20260502015600 | 48 | 311 | 0.0 | 0.0 | 0.00 | 0.00 | 0.00 | 42 | 1019.2 |
| 20260502015040 | 48 | 311 | 0.0 | 0.0 | 0.00 | 0.00 | 0.00 | 41 | 1019.1 |
| 20260502014521 | 49 | 311 | 0.0 | 0.0 | 0.00 | 0.00 | 0.00 | 39 | 1019.1 |
| 20260502014023 | 49 | 311 | 0.0 | 0.9 | 0.00 | 0.00 | 0.00 | 39 | 1019.1 |
| 20260502013526 | 50 | 311 | 0.0 | 1.7 | 0.00 | 0.00 | 0.00 | 39 | 1019.0 |
| 20260502013028 | 50 | 311 | 0.0 | 2.6 | 0.00 | 0.00 | 0.00 | 38 | 1019.0 |
| 20260502012530 | 50 | 315 | 0.9 | 3.5 | 0.00 | 0.00 | 0.00 | 38 | 1019.0 |
| 20260502012030 | 50 | 315 | 1.7 | 3.5 | 0.00 | 0.00 | 0.00 | 38 | 1019.0 |
| 20260502011527 | 50 | 317 | 0.9 | 2.6 | 0.00 | 0.00 | 0.00 | 37 | 1018.9 |
| 20260502011029 | 51 | 331 | 0.9 | 2.6 | 0.00 | 0.00 | 0.00 | 37 | 1018.9 |
| 20260502010530 | 51 | 302 | 1.7 | 6.1 | 0.00 | 0.00 | 0.00 | 38 | 1019.0 |
| 20260502010030 | 51 | 288 | 2.6 | 6.1 | 0.00 | 0.00 | 0.00 | 37 | 1018.9 |
| 20260502005531 | 51 | 298 | 2.6 | 5.2 | 0.00 | 0.00 | 0.00 | 37 | 1018.9 |
| 20260502005033 | 51 | 14 | 1.7 | 7.0 | 0.00 | 0.00 | 0.00 | 37 | 1018.9 |
| 20260502004534 | 51 | 298 | 2.6 | 7.0 | 0.00 | 0.00 | 0.00 | 37 | 1018.9 |
| 20260502004042 | 51 | 40 | 2.6 | 3.5 | 0.00 | 0.00 | 0.00 | 35 | 1018.8 |
| 20260502003540 | 51 | 318 | 1.7 | 2.6 | 0.00 | 0.00 | 0.00 | 35 | 1018.9 |
| 20260502003048 | 51 | 294 | 1.7 | 3.5 | 0.00 | 0.00 | 0.00 | 34 | 1018.9 |
| 20260502002555 | 51 | 314 | 1.7 | 4.3 | 0.00 | 0.00 | 0.00 | 35 | 1018.9 |
| 20260502002056 | 51 | 306 | 1.7 | 5.2 | 0.00 | 0.00 | 0.00 | 36 | 1018.9 |
| 20260502001534 | 51 | 320 | 2.6 | 5.2 | 0.00 | 0.00 | 0.00 | 35 | 1018.9 |
| 20260502001100 | 51 | 298 | 1.7 | 6.1 | 0.00 | 0.00 | 0.00 | 35 | 1018.9 |
| 20260502000540 | 51 | 304 | 3.5 | 7.0 | 0.00 | 0.00 | 0.00 | 37 | 1018.9 |
| 20260502000047 | 51 | 327 | 3.5 | 7.0 | 0.00 | 0.00 | 0.00 | 36 | 1018.9 |
| 20260501235552 | 52 | 346 | 1.7 | 7.0 | 0.00 | 0.00 | 0.00 | 36 | 1018.8 |
| 20260501235100 | 52 | 326 | 3.5 | 7.0 | 0.00 | 0.00 | 0.00 | 36 | 1018.9 |
| 20260501234539 | 53 | 313 | 3.5 | 8.7 | 0.00 | 0.00 | 0.00 | 34 | 1018.9 |
| 20260501234018 | 53 | 345 | 3.5 | 8.7 | 0.00 | 0.00 | 0.00 | 34 | 1018.9 |
| 20260501233521 | 53 | 321 | 3.5 | 8.7 | 0.00 | 0.00 | 0.00 | 35 | 1018.9 |
| 20260501233023 | 53 | 43 | 1.7 | 7.0 | 0.00 | 0.00 | 0.00 | 36 | 1018.9 |
| 20260501232525 | 53 | 336 | 1.7 | 8.7 | 0.00 | 0.00 | 0.00 | 35 | 1018.8 |
| 20260501232024 | 53 | 360 | 4.3 | 8.7 | 0.00 | 0.00 | 0.00 | 35 | 1018.9 |
| 20260501231524 | 53 | 337 | 2.6 | 5.2 | 0.00 | 0.00 | 0.00 | 34 | 1018.8 |
| 20260501231025 | 53 | 5 | 3.5 | 13.0 | 0.00 | 0.00 | 0.00 | 34 | 1018.8 |
| 20260501230526 | 53 | 296 | 5.2 | 8.7 | 0.00 | 0.00 | 0.00 | 34 | 1018.9 |
| 20260501230027 | 53 | 321 | 2.6 | 5.2 | 0.00 | 0.00 | 0.00 | 37 | 1018.9 |
| 20260501225521 | 52 | 313 | 2.6 | 7.0 | 0.00 | 0.00 | 0.00 | 34 | 1018.8 |
| 20260501225025 | 52 | 329 | 3.5 | 7.8 | 0.00 | 0.00 | 0.00 | 36 | 1018.9 |
| 20260501224522 | 52 | 344 | 5.2 | 7.8 | 0.00 | 0.00 | 0.00 | 35 | 1018.9 |
| 20260501224025 | 53 | 15 | 2.6 | 5.2 | 0.00 | 0.00 | 0.00 | 35 | 1018.9 |
| 20260501223530 | 53 | 321 | 2.6 | 7.8 | 0.00 | 0.00 | 0.00 | 37 | 1018.9 |
| 20260501223032 | 53 | 351 | 4.3 | 7.8 | 0.00 | 0.00 | 0.00 | 35 | 1018.9 |
| 20260501222512 | 53 | 296 | 3.5 | 7.8 | 0.00 | 0.00 | 0.00 | 38 | 1018.9 |
| 20260501222013 | 52 | 311 | 1.7 | 7.8 | 0.00 | 0.00 | 0.00 | 35 | 1019.0 |
| 20260501221513 | 52 | 301 | 3.5 | 8.7 | 0.00 | 0.00 | 0.00 | 35 | 1019.0 |
| 20260501221017 | 53 | 344 | 3.5 | 10.4 | 0.00 | 0.00 | 0.00 | 35 | 1019.0 |
| 20260501220513 | 53 | 322 | 5.2 | 12.2 | 0.00 | 0.00 | 0.00 | 36 | 1019.0 |
| 20260501220013 | 53 | 327 | 5.2 | 12.2 | 0.00 | 0.00 | 0.00 | 36 | 1019.0 |
| 20260501215514 | 53 | 323 | 5.2 | 9.6 | 0.00 | 0.00 | 0.00 | 33 | 1018.9 |
| 20260501215016 | 54 | 15 | 5.2 | 9.6 | 0.00 | 0.00 | 0.00 | 35 | 1018.9 |
| 20260501214517 | 53 | 55 | 2.6 | 11.3 | 0.00 | 0.00 | 0.00 | 37 | 1018.8 |
| 20260501214044 | 53 | 306 | 4.3 | 11.3 | 0.00 | 0.00 | 0.00 | 34 | 1018.8 |
| 20260501213550 | 53 | 335 | 2.6 | 7.0 | 0.00 | 0.00 | 0.00 | 36 | 1018.9 |
| 20260501213056 | 53 | 304 | 3.5 | 7.8 | 0.00 | 0.00 | 0.00 | 38 | 1018.9 |
| 20260501212534 | 53 | 315 | 2.6 | 7.0 | 0.00 | 0.00 | 0.00 | 37 | 1018.9 |
| 20260501212100 | 53 | 360 | 4.3 | 7.0 | 0.00 | 0.00 | 0.00 | 37 | 1019.0 |
| 20260501211541 | 53 | 360 | 3.5 | 9.6 | 0.00 | 0.00 | 0.00 | 41 | 1019.0 |
| 20260501211037 | 51 | 329 | 2.6 | 10.4 | 0.00 | 0.00 | 0.00 | 38 | 1019.0 |
| 20260501210545 | 52 | 34 | 1.7 | 10.4 | 0.00 | 0.00 | 0.00 | 35 | 1019.0 |
| 20260501210053 | 53 | 302 | 4.3 | 7.0 | 0.00 | 0.00 | 0.00 | 38 | 1019.1 |
| 20260501205534 | 53 | 337 | 2.6 | 8.7 | 0.00 | 0.00 | 0.00 | 36 | 1019.1 |
| 20260501205041 | 52 | 331 | 3.5 | 8.7 | 0.00 | 0.00 | 0.00 | 38 | 1019.2 |
| 20260501204521 | 52 | 294 | 2.6 | 7.0 | 0.00 | 0.00 | 0.00 | 38 | 1019.2 |